Wannaska, Minnesota
Current Conditions -  °F | °C
As of 12:14 PM on Tuesday 21 Oct 2014 (Local Time) from KROX Reporting Station
Clear Clear  
Wind Chill: 54°   Ceiling: Unl
Heat Index: 54°   Visibility: 10mi
Dew Point: 43°   Wind: 14mph
Humidity: 67%   Direction: 140°SE
Pressure: 30.05"   Gusts: 20mph
Location:  48.66°N, 95.74°W
Report Text: KROX 211714Z AUTO 14012G17KT 10SM CLR 12/06 A3005 RMK AO2
Loading
Personal Weather Stations






























Interactive Weather Map
Tropical Storm Tracking
New forecast layout! Learn more

10-Day Weather Forecast

Advertisements
Track Severe Weather on mobile